Time;durP1;ratioP1;P1;durP2;ratioP2;P2;SDS_P1;SDS_P2;PMS_P1;PMS_P2;Temp;Humidity;BMP_temperature;BMP_pressure;BME280_temperature;BME280_humidity;BME280_pressure;Samples;Min_cycle;Max_cycle;Signal;HPM_P1;HPM_P2
2020/12/08 00:01:21;;;;;;;2.25;1.70;;;20.90;43.80;;;;;;5028619;28;20037;-54
2020/12/08 00:03:47;;;;;;;2.17;1.92;;;20.90;43.70;;;;;;5031883;28;20014;-54
2020/12/08 00:06:16;;;;;;;2.30;1.38;;;20.90;43.70;;;;;;5032116;28;20033;-55
2020/12/08 00:08:41;;;;;;;2.20;2.00;;;20.90;43.70;;;;;;5029565;28;20017;-52
2020/12/08 00:11:12;;;;;;;3.50;2.00;;;20.90;43.70;;;;;;5032558;28;20506;-51
2020/12/08 00:13:37;;;;;;;1.83;1.60;;;20.90;43.70;;;;;;5031627;28;20025;-53
2020/12/08 00:16:06;;;;;;;3.65;1.85;;;20.90;43.60;;;;;;5032174;28;20070;-51
2020/12/08 00:18:32;;;;;;;2.13;1.70;;;20.90;43.60;;;;;;5031797;28;20037;-52
2020/12/08 00:20:58;;;;;;;2.97;1.70;;;20.90;43.60;;;;;;5032122;28;20021;-53
2020/12/08 00:23:23;;;;;;;2.83;1.70;;;20.90;43.60;;;;;;5031709;28;20049;-53
2020/12/08 00:25:49;;;;;;;1.88;1.60;;;20.90;43.60;;;;;;5029676;28;20485;-56
2020/12/08 00:28:15;;;;;;;2.80;1.73;;;20.80;43.50;;;;;;5029846;28;20474;-57
2020/12/08 00:30:40;;;;;;;2.33;1.60;;;20.80;43.60;;;;;;5029533;28;20032;-58
2020/12/08 00:33:07;;;;;;;2.85;1.73;;;20.80;43.60;;;;;;5029387;28;20025;-55
2020/12/08 00:35:32;;;;;;;2.08;1.80;;;20.80;43.60;;;;;;5051455;28;20120;-56
2020/12/08 00:37:58;;;;;;;1.90;1.65;;;20.80;43.50;;;;;;5028305;28;20104;-52
2020/12/08 00:40:24;;;;;;;2.67;1.60;;;20.80;43.50;;;;;;5030073;28;20036;-56
2020/12/08 00:42:50;;;;;;;2.20;1.50;;;20.80;43.50;;;;;;5028199;28;20033;-54
2020/12/08 00:45:15;;;;;;;2.05;1.60;;;20.80;43.50;;;;;;5030400;28;20152;-55
2020/12/08 00:47:41;;;;;;;2.28;1.67;;;20.80;43.50;;;;;;5029371;28;20041;-57
2020/12/08 00:50:07;;;;;;;2.55;1.90;;;20.80;43.50;;;;;;5030578;28;20036;-55
2020/12/08 00:52:33;;;;;;;2.05;1.70;;;20.80;43.50;;;;;;5030085;28;20037;-52
2020/12/08 00:54:58;;;;;;;1.98;1.52;;;20.80;43.50;;;;;;5032407;28;20092;-50
2020/12/08 00:57:24;;;;;;;2.25;1.55;;;20.80;43.50;;;;;;5033039;28;20053;-54
2020/12/08 00:59:50;;;;;;;2.90;1.77;;;20.80;43.40;;;;;;5032406;28;20044;-55
2020/12/08 01:02:18;;;;;;;3.10;1.90;;;20.80;43.50;;;;;;5032824;28;20033;-53
2020/12/08 01:04:44;;;;;;;1.90;1.48;;;20.80;43.50;;;;;;5032378;28;20131;-54
2020/12/08 01:07:10;;;;;;;3.83;1.85;;;20.80;43.50;;;;;;5031810;28;20487;-53
2020/12/08 01:09:36;;;;;;;2.17;1.77;;;20.80;43.50;;;;;;5031730;28;20034;-54
2020/12/08 01:12:02;;;;;;;1.98;1.58;;;20.70;43.40;;;;;;5032662;28;20032;-54
2020/12/08 01:14:28;;;;;;;3.47;2.03;;;20.80;43.40;;;;;;5031368;28;20041;-64
2020/12/08 01:16:57;;;;;;;3.35;1.75;;;20.70;43.30;;;;;;5032359;28;20037;-53
2020/12/08 01:19:23;;;;;;;2.88;1.90;;;20.70;43.30;;;;;;5032316;28;20028;-51
2020/12/08 01:21:55;;;;;;;2.00;1.80;;;20.70;43.30;;;;;;5031198;28;20029;-52
2020/12/08 01:24:21;;;;;;;3.20;2.00;;;20.80;43.40;;;;;;5031890;28;20053;-57
2020/12/08 01:26:47;;;;;;;2.70;1.73;;;20.70;43.30;;;;;;5031013;28;20035;-55
2020/12/08 01:29:13;;;;;;;2.50;1.85;;;20.70;43.30;;;;;;5031887;28;20113;-54
2020/12/08 01:31:39;;;;;;;2.38;1.85;;;20.80;43.40;;;;;;5031299;28;20040;-55
2020/12/08 01:34:05;;;;;;;5.90;1.63;;;20.70;43.30;;;;;;5032101;28;20022;-55
2020/12/08 01:36:31;;;;;;;2.30;1.75;;;20.70;43.30;;;;;;5030769;28;20033;-55
2020/12/08 01:38:56;;;;;;;2.33;1.55;;;20.70;43.20;;;;;;5031830;28;20488;-56
2020/12/08 01:41:22;;;;;;;1.70;1.60;;;20.70;43.30;;;;;;5031695;28;20065;-55
2020/12/08 01:43:52;;;;;;;2.03;1.50;;;20.70;43.30;;;;;;5030967;28;20670;-49
2020/12/08 01:46:21;;;;;;;3.03;1.90;;;20.70;43.20;;;;;;5030229;28;20125;-57
2020/12/08 01:48:48;;;;;;;1.90;1.55;;;20.70;43.20;;;;;;5030383;28;20029;-52
2020/12/08 01:51:16;;;;;;;2.58;1.80;;;20.70;43.20;;;;;;5031707;28;20077;-53
2020/12/08 01:53:42;;;;;;;2.50;1.80;;;20.70;43.20;;;;;;5030265;28;20536;-53
2020/12/08 01:56:12;;;;;;;2.05;1.60;;;20.70;43.10;;;;;;5031416;28;20116;-52
2020/12/08 01:58:38;;;;;;;1.75;1.55;;;20.70;43.20;;;;;;5030723;28;20069;-53
2020/12/08 02:01:04;;;;;;;1.90;1.65;;;20.70;43.10;;;;;;5030815;28;20132;-56
2020/12/08 02:03:30;;;;;;;2.05;1.60;;;20.70;43.10;;;;;;5030782;28;20475;-63
2020/12/08 02:05:56;;;;;;;2.05;1.40;;;20.70;43.10;;;;;;5030900;28;20132;-55
2020/12/08 02:08:29;;;;;;;2.00;1.55;;;20.70;43.10;;;;;;5031315;28;20101;-54
2020/12/08 02:10:56;;;;;;;1.80;1.63;;;20.70;43.10;;;;;;5030875;28;20037;-56
2020/12/08 02:13:22;;;;;;;1.90;1.70;;;20.70;43.10;;;;;;5031629;28;20025;-54
2020/12/08 02:15:48;;;;;;;2.42;1.70;;;20.70;43.10;;;;;;5030644;28;20108;-55
2020/12/08 02:18:14;;;;;;;2.00;1.70;;;20.70;43.10;;;;;;5030372;28;20040;-54
2020/12/08 02:20:41;;;;;;;2.92;1.75;;;20.70;43.00;;;;;;5029342;28;20026;-54
2020/12/08 02:23:07;;;;;;;2.35;1.88;;;20.70;43.10;;;;;;5031022;28;20556;-54
2020/12/08 02:25:32;;;;;;;2.85;1.73;;;20.70;43.00;;;;;;5030194;28;20053;-57
2020/12/08 02:27:58;;;;;;;2.10;1.67;;;20.70;43.00;;;;;;5030665;28;20116;-55
2020/12/08 02:30:24;;;;;;;1.92;1.63;;;20.70;43.00;;;;;;5030793;28;20168;-52
2020/12/08 02:32:50;;;;;;;2.00;1.80;;;20.70;43.00;;;;;;5030701;28;20148;-55
2020/12/08 02:35:16;;;;;;;2.53;1.65;;;20.70;43.00;;;;;;5031281;28;20036;-55
2020/12/08 02:37:41;;;;;;;2.10;1.55;;;20.70;42.90;;;;;;5030078;28;20490;-54
2020/12/08 02:40:07;;;;;;;2.33;2.13;;;20.70;43.00;;;;;;5031464;28;20021;-55
2020/12/08 02:42:33;;;;;;;2.05;1.70;;;20.70;43.00;;;;;;5029958;28;20417;-61
2020/12/08 02:44:58;;;;;;;2.35;1.70;;;20.70;43.00;;;;;;5031424;28;20029;-53
2020/12/08 02:47:24;;;;;;;2.50;1.60;;;20.70;42.90;;;;;;5030501;28;20073;-55
2020/12/08 02:49:54;;;;;;;2.55;1.80;;;20.70;42.90;;;;;;5028953;28;20297;-51
2020/12/08 02:52:20;;;;;;;2.30;1.83;;;20.70;42.90;;;;;;5031056;28;20083;-53
2020/12/08 02:54:46;;;;;;;2.40;2.10;;;20.70;42.90;;;;;;5030399;28;20116;-55
2020/12/08 02:57:12;;;;;;;1.92;1.50;;;20.70;42.90;;;;;;5030498;28;20052;-55
2020/12/08 02:59:37;;;;;;;2.38;2.03;;;20.70;42.90;;;;;;5028820;28;20474;-54
2020/12/08 03:02:03;;;;;;;1.65;1.50;;;20.70;42.80;;;;;;5030796;28;20034;-51
2020/12/08 03:04:29;;;;;;;2.20;1.70;;;20.70;42.90;;;;;;5031018;28;20037;-61
2020/12/08 03:06:54;;;;;;;2.35;1.95;;;20.70;42.80;;;;;;5032962;28;20032;-55
2020/12/08 03:09:20;;;;;;;3.00;1.88;;;20.70;42.80;;;;;;5034189;28;20025;-52
2020/12/08 03:11:46;;;;;;;2.42;1.80;;;20.70;42.80;;;;;;5033901;28;20033;-53
2020/12/08 03:14:11;;;;;;;2.25;1.80;;;20.70;43.40;;;;;;5034595;28;20029;-52
2020/12/08 03:16:37;;;;;;;2.17;1.70;;;20.70;42.80;;;;;;5033670;28;20025;-54
2020/12/08 03:19:03;;;;;;;2.75;1.98;;;20.70;42.80;;;;;;5034847;28;20030;-53
2020/12/08 03:21:33;;;;;;;2.17;1.83;;;20.70;42.70;;;;;;5034554;28;20040;-55
2020/12/08 03:23:59;;;;;;;2.13;1.75;;;20.70;42.70;;;;;;5033772;28;20080;-53
2020/12/08 03:26:25;;;;;;;1.88;1.55;;;20.70;43.40;;;;;;5034315;28;20490;-56
2020/12/08 03:28:51;;;;;;;2.60;1.70;;;20.70;42.70;;;;;;5033042;28;20231;-53
2020/12/08 03:31:16;;;;;;;2.25;1.67;;;20.70;43.40;;;;;;5034533;28;20104;-53
2020/12/08 03:33:42;;;;;;;2.20;1.60;;;20.70;42.70;;;;;;5033578;28;20052;-52
2020/12/08 03:36:15;;;;;;;2.03;1.83;;;20.70;42.70;;;;;;5034106;28;20046;-54
2020/12/08 03:38:47;;;;;;;1.60;1.50;;;20.70;42.70;;;;;;5033668;28;20056;-54
2020/12/08 03:41:20;;;;;;;2.13;1.77;;;20.70;42.70;;;;;;5034240;28;20026;-54
2020/12/08 03:43:46;;;;;;;2.80;1.92;;;20.70;42.70;;;;;;5048452;28;20030;-57
2020/12/08 03:46:25;;;;;;;2.40;1.65;;;20.70;42.70;;;;;;5032893;28;20055;-54
2020/12/08 03:48:53;;;;;;;2.20;1.70;;;20.70;42.60;;;;;;5031589;28;20029;-52
2020/12/08 03:51:20;;;;;;;1.70;1.60;;;20.70;42.60;;;;;;5034043;28;20025;-57
2020/12/08 03:53:46;;;;;;;2.45;1.80;;;20.70;42.60;;;;;;5033047;28;20104;-52
2020/12/08 03:56:17;;;;;;;2.15;1.92;;;20.70;42.60;;;;;;5034020;28;20030;-51
2020/12/08 03:58:44;;;;;;;2.20;1.90;;;20.70;42.50;;;;;;5031550;28;20033;-57
2020/12/08 04:01:19;;;;;;;2.05;1.58;;;20.70;42.50;;;;;;5026936;28;20502;-54
2020/12/08 04:03:50;;;;;;;2.22;2.00;;;20.70;42.50;;;;;;5032955;28;20037;-53
2020/12/08 04:06:15;;;;;;;3.08;2.00;;;20.70;42.50;;;;;;5025509;28;20065;-56
2020/12/08 04:08:42;;;;;;;2.10;1.67;;;20.70;42.60;;;;;;5033412;28;20065;-54
2020/12/08 04:11:09;;;;;;;2.63;1.70;;;20.70;42.50;;;;;;5033241;28;20038;-54
2020/12/08 04:13:34;;;;;;;1.73;1.55;;;20.70;42.50;;;;;;5033094;28;20025;-63
2020/12/08 04:16:01;;;;;;;2.38;2.15;;;20.70;42.50;;;;;;5048214;28;20489;-54
2020/12/08 04:18:26;;;;;;;2.22;1.83;;;20.70;42.50;;;;;;5032616;28;20394;-55
2020/12/08 04:20:52;;;;;;;2.05;1.85;;;20.70;42.50;;;;;;5032232;28;20037;-55
2020/12/08 04:23:19;;;;;;;1.77;1.40;;;20.70;42.50;;;;;;5025353;28;20049;-52
2020/12/08 04:25:46;;;;;;;2.28;1.95;;;20.70;42.50;;;;;;5032366;28;20033;-54
2020/12/08 04:28:12;;;;;;;2.75;1.67;;;20.70;42.50;;;;;;5032961;28;20045;-54
2020/12/08 04:30:38;;;;;;;2.00;1.60;;;20.70;42.50;;;;;;5031807;28;20034;-55
2020/12/08 04:33:04;;;;;;;2.03;1.83;;;20.70;42.50;;;;;;5032793;28;20036;-54
2020/12/08 04:35:30;;;;;;;1.70;1.60;;;20.70;42.40;;;;;;5032955;28;20037;-55
2020/12/08 04:37:56;;;;;;;2.15;1.63;;;20.70;42.40;;;;;;5047576;28;20370;-54
2020/12/08 04:40:22;;;;;;;2.63;2.03;;;20.70;42.40;;;;;;5032332;28;20505;-53
2020/12/08 04:42:50;;;;;;;2.33;1.85;;;20.70;42.40;;;;;;5032167;28;20512;-54
2020/12/08 04:45:17;;;;;;;2.60;1.83;;;20.70;42.40;;;;;;5032732;28;20029;-54
2020/12/08 04:47:45;;;;;;;2.28;1.77;;;20.70;42.30;;;;;;5031732;28;20556;-54
2020/12/08 04:50:16;;;;;;;2.38;1.95;;;20.70;42.30;;;;;;5032609;28;20029;-58
2020/12/08 04:52:43;;;;;;;1.90;1.65;;;20.70;42.30;;;;;;5031900;28;20034;-51
2020/12/08 04:55:09;;;;;;;2.75;2.35;;;20.70;42.30;;;;;;5032276;28;20036;-54
2020/12/08 04:57:35;;;;;;;2.03;1.65;;;20.70;42.30;;;;;;5032359;28;20071;-61
2020/12/08 05:00:12;;;;;;;2.00;1.80;;;20.70;42.30;;;;;;5032295;28;20021;-53
2020/12/08 05:02:48;;;;;;;2.30;1.98;;;20.70;42.40;;;;;;5031838;28;20029;-57
2020/12/08 05:05:17;;;;;;;2.53;2.03;;;20.70;42.30;;;;;;5032487;28;20039;-57
2020/12/08 05:07:45;;;;;;;3.53;2.10;;;20.80;42.30;;;;;;5030894;28;20049;-56
2020/12/08 05:10:11;;;;;;;3.35;2.10;;;20.70;42.30;;;;;;5032495;28;20072;-54
2020/12/08 05:12:37;;;;;;;2.70;2.05;;;20.70;42.30;;;;;;5031868;28;20022;-65
2020/12/08 05:15:04;;;;;;;3.38;2.70;;;20.70;42.20;;;;;;5032310;28;20517;-55
2020/12/08 05:17:31;;;;;;;3.67;1.83;;;20.70;42.30;;;;;;5032222;28;20091;-54
2020/12/08 05:20:11;;;;;;;3.08;2.33;;;20.70;42.20;;;;;;5031634;28;20049;-54
2020/12/08 05:22:38;;;;;;;2.60;2.05;;;20.80;42.30;;;;;;5031392;28;20103;-64
2020/12/08 05:25:11;;;;;;;3.35;1.80;;;20.80;42.30;;;;;;5031389;28;20030;-54
2020/12/08 05:27:37;;;;;;;2.50;2.00;;;20.70;42.20;;;;;;5030349;28;20041;-65
2020/12/08 05:30:05;;;;;;;2.80;2.30;;;20.70;42.10;;;;;;5031589;28;20040;-55
2020/12/08 05:32:35;;;;;;;2.38;1.90;;;20.70;42.10;;;;;;5031958;28;20053;-55
2020/12/08 05:35:06;;;;;;;2.60;2.10;;;20.70;42.10;;;;;;5031398;28;20507;-54
2020/12/08 05:37:37;;;;;;;2.90;2.30;;;20.70;42.10;;;;;;5031855;28;20037;-56
2020/12/08 05:40:09;;;;;;;2.63;2.00;;;20.80;42.20;;;;;;5032002;28;20022;-56
2020/12/08 05:42:36;;;;;;;;;;;20.80;42.20;;;;;;5031828;28;20030;-61
2020/12/08 05:45:05;;;;;;;2.38;1.95;;;20.80;42.10;;;;;;5031805;28;19909;-55
2020/12/08 05:47:40;;;;;;;2.67;2.20;;;20.70;42.10;;;;;;5031527;28;20079;-60
2020/12/08 05:50:06;;;;;;;3.75;2.35;;;20.80;42.10;;;;;;5032430;28;20026;-52
2020/12/08 05:52:33;;;;;;;2.88;2.35;;;20.80;42.10;;;;;;5031864;28;20538;-55
2020/12/08 05:55:09;;;;;;;3.47;2.10;;;20.80;42.70;;;;;;5024068;28;20052;-56
2020/12/08 05:57:35;;;;;;;2.70;1.85;;;20.80;42.10;;;;;;5028626;28;20494;-58
2020/12/08 06:00:00;;;;;;;2.75;1.88;;;20.70;42.00;;;;;;5030905;28;20088;-50
2020/12/08 06:02:30;;;;;;;2.00;1.80;;;20.80;42.10;;;;;;5031257;28;20029;-55
2020/12/08 06:04:57;;;;;;;2.63;2.20;;;20.80;42.00;;;;;;5029537;28;20606;-55
2020/12/08 06:07:31;;;;;;;3.20;2.00;;;20.80;42.00;;;;;;5031215;28;20045;-55
2020/12/08 06:10:15;;;;;;;4.85;2.17;;;20.80;42.00;;;;;;5030611;28;20059;-55
2020/12/08 06:12:40;;;;;;;2.38;2.13;;;20.80;42.00;;;;;;5030760;28;20486;-57
2020/12/08 06:15:24;;;;;;;2.25;1.98;;;20.80;42.00;;;;;;5030597;28;20025;-51
2020/12/08 06:17:51;;;;;;;2.28;1.90;;;20.80;42.10;;;;;;5030777;28;20040;-52
2020/12/08 06:20:18;;;;;;;2.22;2.03;;;20.80;42.00;;;;;;5030460;28;20029;-53
2020/12/08 06:22:57;;;;;;;2.95;2.35;;;20.80;42.00;;;;;;5030272;28;20044;-53
2020/12/08 06:25:23;;;;;;;2.50;1.80;;;20.80;42.00;;;;;;5031270;28;20021;-55
2020/12/08 06:27:49;;;;;;;2.38;2.10;;;20.80;42.10;;;;;;5030277;28;20112;-56
2020/12/08 06:30:20;;;;;;;2.65;1.70;;;20.80;42.00;;;;;;5031254;28;21707;-52
2020/12/08 06:32:46;;;;;;;3.60;1.87;;;20.80;42.00;;;;;;5028970;28;20032;-54
2020/12/08 06:35:14;;;;;;;2.13;1.85;;;20.80;42.00;;;;;;5029962;28;20041;-53
2020/12/08 06:37:53;;;;;;;3.78;2.95;;;20.80;42.00;;;;;;5030523;28;20021;-64
2020/12/08 06:40:23;;;;;;;2.53;2.20;;;20.80;42.00;;;;;;5031725;28;20030;-53
2020/12/08 06:42:51;;;;;;;2.83;2.20;;;20.80;42.00;;;;;;5049713;28;20026;-54
2020/12/08 06:45:17;;;;;;;2.83;2.08;;;20.80;42.00;;;;;;5035052;28;20100;-51
2020/12/08 06:47:45;;;;;;;3.15;2.10;;;20.80;42.00;;;;;;5033909;28;20490;-55
2020/12/08 06:50:40;;;;;;;3.22;2.53;;;20.80;41.90;;;;;;5035132;28;20471;-54
2020/12/08 06:53:06;;;;;;;3.03;2.33;;;20.80;42.00;;;;;;5029641;28;20034;-53
2020/12/08 06:55:47;;;;;;;4.55;2.72;;;20.80;42.00;;;;;;5034541;28;20025;-56
2020/12/08 06:58:13;;;;;;;3.20;2.70;;;20.80;42.00;;;;;;5034577;28;20040;-53
2020/12/08 07:00:41;;;;;;;2.95;2.53;;;20.80;41.90;;;;;;5034667;28;20030;-62
2020/12/08 07:03:07;;;;;;;2.88;2.17;;;20.80;42.00;;;;;;5034698;28;20025;-52
2020/12/08 07:05:34;;;;;;;3.47;2.55;;;20.70;42.00;;;;;;5034295;28;20029;-54
2020/12/08 07:08:04;;;;;;;3.25;2.25;;;20.80;42.10;;;;;;5033709;28;20096;-54
2020/12/08 07:10:35;;;;;;;3.58;2.50;;;20.80;42.10;;;;;;5034752;28;20471;-53
2020/12/08 07:13:01;;;;;;;3.42;2.53;;;20.80;42.10;;;;;;5033385;28;20482;-54
2020/12/08 07:15:27;;;;;;;6.32;2.72;;;20.80;42.20;;;;;;5033748;28;20033;-55
2020/12/08 07:17:56;;;;;;;4.40;2.30;;;20.80;42.40;;;;;;5033278;28;20037;-52
2020/12/08 07:20:25;;;;;;;6.57;2.40;;;20.80;42.40;;;;;;5034298;28;20488;-55
2020/12/08 07:22:52;;;;;;;4.68;2.53;;;20.80;42.50;;;;;;5030917;28;20501;-54
2020/12/08 07:25:19;;;;;;;6.43;2.75;;;20.90;43.00;;;;;;5033681;28;20045;-53
2020/12/08 07:27:48;;;;;;;4.85;2.53;;;20.80;42.90;;;;;;5033254;28;20080;-57
2020/12/08 07:30:17;;;;;;;5.72;2.38;;;20.90;42.90;;;;;;5034256;28;20037;-54
2020/12/08 07:32:42;;;;;;;6.68;3.50;;;20.90;43.00;;;;;;5032739;28;20048;-63
2020/12/08 07:35:19;;;;;;;5.68;2.72;;;20.90;43.00;;;;;;5033997;28;20467;-53
2020/12/08 07:37:45;;;;;;;5.07;2.28;;;20.90;43.00;;;;;;5032812;28;20094;-50
2020/12/08 07:40:12;;;;;;;6.97;2.60;;;20.90;43.20;;;;;;5033724;28;20417;-54
2020/12/08 07:42:44;;;;;;;5.50;2.40;;;20.80;43.20;;;;;;5033872;28;20034;-57
2020/12/08 07:45:10;;;;;;;5.55;2.58;;;20.90;43.20;;;;;;5026828;28;20044;-53
2020/12/08 07:47:36;;;;;;;12.73;3.50;;;20.90;43.50;;;;;;5031816;28;20025;-54
2020/12/08 07:50:03;;;;;;;7.45;2.70;;;20.90;43.70;;;;;;5047713;28;20036;-55
2020/12/08 07:52:29;;;;;;;9.18;3.10;;;20.90;43.70;;;;;;5032053;28;20021;-54
2020/12/08 07:54:54;;;;;;;8.60;3.05;;;20.80;43.70;;;;;;5033063;28;20052;-56
2020/12/08 07:57:20;;;;;;;7.55;3.83;;;20.90;43.80;;;;;;5032339;28;20036;-62
2020/12/08 07:59:45;;;;;;;5.05;2.72;;;20.80;43.70;;;;;;5031584;28;20115;-57
2020/12/08 08:02:11;;;;;;;8.73;3.22;;;20.90;44.00;;;;;;5049047;28;20079;-47
2020/12/08 08:04:37;;;;;;;4.30;2.45;;;20.90;44.20;;;;;;5032874;28;20033;-52
2020/12/08 08:07:02;;;;;;;10.70;4.60;;;21.00;44.00;;;;;;5032144;28;20137;-52
2020/12/08 08:09:28;;;;;;;4.70;2.80;;;21.00;44.00;;;;;;5029971;28;20116;-53
2020/12/08 08:11:54;;;;;;;8.15;3.50;;;21.00;43.70;;;;;;5032443;28;20037;-48
2020/12/08 08:14:20;;;;;;;4.55;2.60;;;21.00;43.70;;;;;;5032769;28;20038;-51
2020/12/08 08:16:47;;;;;;;7.93;2.95;;;21.00;43.70;;;;;;5031974;28;20040;-55
2020/12/08 08:19:13;;;;;;;8.68;3.15;;;21.10;43.70;;;;;;5031874;28;20029;-58
2020/12/08 08:21:42;;;;;;;9.40;3.20;;;21.10;43.80;;;;;;5029629;28;20041;-57
2020/12/08 08:24:08;;;;;;;6.47;2.92;;;21.10;43.60;;;;;;5031960;28;20072;-49
2020/12/08 08:26:33;;;;;;;3.15;2.70;;;21.00;43.50;;;;;;5048913;28;20038;-54
2020/12/08 08:28:59;;;;;;;5.88;3.03;;;21.00;43.30;;;;;;5031644;28;20434;-50
2020/12/08 08:31:24;;;;;;;5.80;3.25;;;21.00;43.30;;;;;;5033514;28;20029;-48
2020/12/08 08:33:50;;;;;;;3.72;2.72;;;21.00;43.20;;;;;;5032401;28;20033;-49
2020/12/08 08:36:16;;;;;;;5.28;2.88;;;21.00;43.20;;;;;;5029442;28;20053;-51
2020/12/08 08:38:41;;;;;;;4.30;3.00;;;21.00;43.10;;;;;;5032246;28;20033;-48
2020/12/08 08:41:08;;;;;;;4.63;3.10;;;21.00;43.00;;;;;;5030029;28;20029;-52
2020/12/08 08:43:33;;;;;;;4.63;2.72;;;21.00;43.00;;;;;;5032549;28;20037;-48
2020/12/08 08:45:59;;;;;;;5.53;2.85;;;21.00;42.90;;;;;;5031461;28;20091;-52
2020/12/08 08:48:25;;;;;;;4.25;2.72;;;21.00;43.50;;;;;;5031208;28;20033;-51
2020/12/08 08:50:51;;;;;;;7.15;2.60;;;21.00;42.70;;;;;;5031495;28;20033;-48
2020/12/08 08:53:16;;;;;;;5.55;2.65;;;21.00;42.60;;;;;;5032403;28;20041;-49
2020/12/08 08:55:42;;;;;;;5.05;2.47;;;21.00;42.50;;;;;;5032116;28;20087;-52
2020/12/08 08:58:08;;;;;;;4.50;3.20;;;21.00;42.50;;;;;;5031742;28;20048;-50
2020/12/08 09:00:34;;;;;;;4.05;2.92;;;21.00;42.50;;;;;;5032409;28;20462;-50
2020/12/08 09:02:59;;;;;;;6.72;3.30;;;21.10;42.50;;;;;;5029792;28;20022;-48
2020/12/08 09:05:26;;;;;;;5.78;3.10;;;21.10;42.40;;;;;;5031936;28;20042;-48
2020/12/08 09:07:51;;;;;;;6.18;3.17;;;21.10;42.30;;;;;;5031147;28;20072;-50
2020/12/08 09:10:18;;;;;;;5.13;3.10;;;21.00;42.30;;;;;;5031599;28;20045;-48
2020/12/08 09:12:43;;;;;;;3.63;2.90;;;21.10;42.20;;;;;;5031692;28;20033;-62
2020/12/08 09:15:10;;;;;;;3.75;2.83;;;21.10;42.20;;;;;;5031641;28;20447;-48
2020/12/08 09:17:36;;;;;;;3.92;3.10;;;21.10;42.10;;;;;;5032041;28;20048;-53
2020/12/08 09:20:03;;;;;;;6.28;2.97;;;21.10;42.00;;;;;;5031140;28;20386;-48
2020/12/08 09:22:28;;;;;;;4.45;2.92;;;21.10;42.00;;;;;;5031669;28;20029;-53
2020/12/08 09:24:54;;;;;;;5.22;2.70;;;21.10;42.00;;;;;;5031090;28;20524;-47
2020/12/08 09:27:20;;;;;;;3.88;2.80;;;21.10;42.00;;;;;;5031752;28;20040;-51
2020/12/08 09:29:45;;;;;;;3.00;2.40;;;21.10;42.00;;;;;;5031749;28;20530;-65
2020/12/08 09:32:11;;;;;;;5.78;2.97;;;21.10;41.90;;;;;;5031310;28;20076;-49
2020/12/08 09:34:37;;;;;;;2.83;2.30;;;21.10;41.80;;;;;;5031404;28;20037;-49
2020/12/08 09:37:03;;;;;;;3.92;2.90;;;21.10;41.80;;;;;;5031013;28;20252;-50
2020/12/08 09:39:29;;;;;;;3.90;2.70;;;21.10;41.70;;;;;;5031983;28;20026;-49
2020/12/08 09:41:55;;;;;;;4.03;2.80;;;21.10;41.70;;;;;;5030385;28;20079;-59
2020/12/08 09:44:21;;;;;;;3.42;2.75;;;21.10;41.70;;;;;;5031484;28;20040;-48
2020/12/08 09:46:47;;;;;;;3.75;2.83;;;21.10;41.70;;;;;;5030086;28;20037;-63
2020/12/08 09:49:13;;;;;;;4.35;2.63;;;21.10;41.60;;;;;;5031686;28;20060;-47
2020/12/08 09:51:39;;;;;;;6.38;2.80;;;21.10;41.60;;;;;;5030927;28;20057;-49
2020/12/08 09:54:06;;;;;;;3.03;2.53;;;21.10;42.20;;;;;;5030411;28;20049;-47
2020/12/08 09:56:32;;;;;;;3.90;2.88;;;21.10;41.50;;;;;;5031487;28;20395;-49
2020/12/08 09:58:58;;;;;;;6.00;2.88;;;21.10;41.50;;;;;;5030645;28;20336;-48
2020/12/08 10:01:32;;;;;;;4.78;3.38;;;21.10;41.50;;;;;;5030753;28;20049;-49
2020/12/08 10:03:58;;;;;;;4.03;2.60;;;21.10;41.40;;;;;;5022349;28;20056;-49
2020/12/08 10:06:24;;;;;;;3.45;2.65;;;21.20;41.50;;;;;;5030946;28;20038;-49
2020/12/08 10:08:53;;;;;;;4.32;2.90;;;21.10;41.40;;;;;;5030481;28;20075;-65
2020/12/08 10:11:20;;;;;;;4.80;2.95;;;21.10;41.30;;;;;;5031514;28;20370;-48
2020/12/08 10:13:45;;;;;;;4.85;3.10;;;21.20;41.30;;;;;;5031422;28;20079;-62
2020/12/08 10:16:16;;;;;;;3.88;2.78;;;21.20;41.40;;;;;;5044238;28;20505;-49
2020/12/08 10:18:42;;;;;;;3.53;2.75;;;21.20;41.30;;;;;;5030780;28;20037;-48
2020/12/08 10:21:08;;;;;;;5.45;2.95;;;21.20;41.20;;;;;;5029916;28;20025;-48
2020/12/08 10:23:33;;;;;;;3.33;2.70;;;21.20;41.20;;;;;;5029694;28;20030;-47
2020/12/08 10:25:59;;;;;;;4.38;2.97;;;21.20;41.20;;;;;;5029532;28;20030;-52
2020/12/08 10:28:24;;;;;;;2.97;2.55;;;21.20;41.10;;;;;;5031211;28;20030;-52
2020/12/08 10:30:50;;;;;;;3.80;2.50;;;21.20;41.10;;;;;;5030152;28;20387;-55
2020/12/08 10:33:16;;;;;;;4.05;2.40;;;21.20;41.10;;;;;;5030791;28;20405;-55
2020/12/08 10:35:42;;;;;;;3.47;2.78;;;21.20;41.10;;;;;;5029799;28;20570;-51
2020/12/08 10:38:07;;;;;;;3.65;2.53;;;21.20;41.10;;;;;;5027709;28;20029;-52
2020/12/08 10:40:33;;;;;;;4.03;2.80;;;21.20;41.00;;;;;;5031117;28;20096;-49
2020/12/08 10:42:59;;;;;;;4.45;2.90;;;21.20;41.00;;;;;;5030452;28;20029;-52
2020/12/08 10:45:24;;;;;;;5.03;3.50;;;21.20;41.00;;;;;;5029638;28;20530;-49
2020/12/08 10:47:50;;;;;;;3.95;2.80;;;21.20;41.00;;;;;;5029698;28;20116;-63
2020/12/08 10:50:16;;;;;;;3.03;2.50;;;21.20;41.10;;;;;;5030911;28;20437;-55
2020/12/08 10:52:41;;;;;;;3.15;2.60;;;21.20;41.00;;;;;;5030537;28;20057;-54
2020/12/08 10:55:07;;;;;;;4.35;2.95;;;21.20;41.70;;;;;;5029853;28;20036;-56
2020/12/08 10:57:33;;;;;;;3.60;2.72;;;21.20;41.00;;;;;;5030916;28;20038;-56
2020/12/08 10:59:58;;;;;;;3.45;2.72;;;21.20;41.00;;;;;;5029983;28;20025;-58
2020/12/08 11:02:24;;;;;;;3.90;2.70;;;21.20;41.10;;;;;;5030802;28;20025;-55
2020/12/08 11:04:49;;;;;;;5.22;2.60;;;21.10;41.20;;;;;;5029960;28;20030;-63
2020/12/08 11:07:15;;;;;;;3.70;2.72;;;21.10;41.20;;;;;;5030452;28;20041;-56
2020/12/08 11:09:43;;;;;;;5.07;2.78;;;21.10;41.20;;;;;;5030678;28;20030;-56
2020/12/08 11:12:10;;;;;;;4.13;2.42;;;21.10;41.20;;;;;;5029968;28;20185;-50
2020/12/08 11:14:36;;;;;;;3.47;2.45;;;21.10;41.40;;;;;;5030269;28;20056;-56
2020/12/08 11:17:01;;;;;;;3.60;2.60;;;21.10;42.00;;;;;;5029859;28;20073;-59
2020/12/08 11:19:27;;;;;;;6.15;2.75;;;21.20;42.40;;;;;;5030821;28;20112;-51
2020/12/08 11:21:53;;;;;;;5.03;2.50;;;21.20;42.90;;;;;;5029780;28;20026;-63
2020/12/08 11:24:18;;;;;;;4.25;2.78;;;21.20;43.50;;;;;;5029799;28;20083;-58
2020/12/08 11:26:45;;;;;;;3.72;2.65;;;21.20;44.20;;;;;;5031555;28;20029;-52
2020/12/08 11:29:11;;;;;;;5.25;3.30;;;21.30;44.50;;;;;;5033541;28;20032;-54
2020/12/08 11:31:37;;;;;;;3.47;2.83;;;21.30;44.80;;;;;;5034035;28;20025;-58
2020/12/08 11:34:02;;;;;;;5.40;2.55;;;21.30;44.30;;;;;;5033169;28;20430;-56
2020/12/08 11:36:28;;;;;;;3.38;2.25;;;21.30;44.30;;;;;;5033964;28;20042;-57
2020/12/08 11:38:54;;;;;;;6.30;2.97;;;21.30;44.40;;;;;;5048429;28;20080;-52
2020/12/08 11:41:20;;;;;;;3.85;2.65;;;21.30;44.50;;;;;;5033900;28;20029;-49
2020/12/08 11:43:46;;;;;;;5.35;2.40;;;21.30;44.50;;;;;;5032892;28;20106;-54
2020/12/08 11:46:12;;;;;;;4.72;2.10;;;21.30;44.40;;;;;;5032397;28;20107;-53
2020/12/08 11:48:39;;;;;;;4.35;2.05;;;21.30;44.90;;;;;;5034042;28;20179;-56
2020/12/08 11:51:05;;;;;;;5.50;2.00;;;21.40;44.60;;;;;;5032789;28;20475;-55
2020/12/08 11:53:30;;;;;;;5.10;2.22;;;21.40;44.70;;;;;;5033627;28;20036;-55
2020/12/08 11:55:56;;;;;;;4.68;2.20;;;21.40;44.50;;;;;;5033002;28;20038;-56
2020/12/08 11:58:21;;;;;;;7.38;5.68;;;21.40;44.70;;;;;;5033935;28;20026;-49
2020/12/08 12:00:47;;;;;;;13.18;9.32;;;21.30;38.10;;;;;;5033396;28;20108;-48
2020/12/08 12:03:13;;;;;;;10.77;7.40;;;21.20;36.40;;;;;;5033123;28;20025;-50
2020/12/08 12:05:38;;;;;;;9.27;6.30;;;21.20;36.70;;;;;;5033392;28;20083;-51
2020/12/08 12:08:05;;;;;;;9.02;5.30;;;21.10;38.00;;;;;;5032376;28;20037;-48
2020/12/08 12:10:30;;;;;;;8.82;5.60;;;21.10;38.80;;;;;;5031899;28;20033;-47
2020/12/08 12:12:56;;;;;;;6.22;4.70;;;21.00;39.30;;;;;;5032385;28;20532;-48
2020/12/08 12:15:22;;;;;;;7.90;5.25;;;20.90;39.50;;;;;;5032103;28;20076;-50
2020/12/08 12:17:47;;;;;;;6.85;4.22;;;20.90;39.70;;;;;;5031910;28;20052;-56
2020/12/08 12:20:13;;;;;;;8.50;4.47;;;20.90;39.90;;;;;;5031406;28;20112;-55
2020/12/08 12:22:39;;;;;;;6.15;4.57;;;20.80;40.00;;;;;;5032928;28;20027;-53
2020/12/08 12:25:06;;;;;;;6.72;3.60;;;20.80;40.40;;;;;;5030275;28;20764;-49
2020/12/08 12:27:31;;;;;;;5.88;3.80;;;20.80;40.60;;;;;;5032124;28;20025;-49
2020/12/08 12:29:57;;;;;;;4.32;3.63;;;20.80;40.50;;;;;;5032289;28;20481;-56
2020/12/08 12:32:23;;;;;;;4.93;3.50;;;20.80;40.50;;;;;;5032549;28;20069;-53
2020/12/08 12:34:49;;;;;;;4.82;3.47;;;20.80;40.50;;;;;;5033217;28;20036;-48
2020/12/08 12:37:14;;;;;;;4.57;3.45;;;20.80;40.50;;;;;;5032452;28;20120;-49
2020/12/08 12:39:41;;;;;;;4.80;2.92;;;20.80;40.50;;;;;;5031806;28;20029;-49
2020/12/08 12:42:06;;;;;;;4.03;3.08;;;20.90;40.50;;;;;;5031874;28;20463;-48
2020/12/08 12:44:32;;;;;;;4.10;3.10;;;20.80;40.50;;;;;;5032444;28;20022;-51
2020/12/08 12:46:58;;;;;;;3.47;2.90;;;20.80;40.50;;;;;;5031060;28;20064;-54